createdAt,value
2022-08-19T00:01:30.649Z,99.90
2022-08-19T00:03:59.866Z,99.90
2022-08-19T00:06:27.728Z,99.90
2022-08-19T00:08:54.621Z,99.90
2022-08-19T00:11:25.343Z,99.90
2022-08-19T00:13:53.310Z,99.90
2022-08-19T00:16:26.201Z,99.90
2022-08-19T00:18:54.413Z,99.90
2022-08-19T00:21:21.320Z,99.90
2022-08-19T00:23:48.719Z,99.90
2022-08-19T00:26:15.681Z,99.90
2022-08-19T00:28:42.587Z,99.90
2022-08-19T00:31:10.688Z,99.90
2022-08-19T00:33:38.146Z,99.90
2022-08-19T00:36:08.140Z,99.90
2022-08-19T00:38:37.746Z,99.90
2022-08-19T00:41:07.521Z,99.90
2022-08-19T00:43:34.652Z,99.90
2022-08-19T00:46:05.807Z,99.90
2022-08-19T00:48:34.619Z,99.90
2022-08-19T00:51:02.484Z,99.90
2022-08-19T00:53:32.775Z,99.90
2022-08-19T00:56:02.062Z,99.90
2022-08-19T00:58:33.478Z,99.90
2022-08-19T01:01:01.843Z,99.90
2022-08-19T01:03:29.062Z,99.90
2022-08-19T01:06:19.973Z,99.90
2022-08-19T01:08:50.177Z,99.90
2022-08-19T01:11:17.584Z,99.90
2022-08-19T01:13:50.093Z,99.90
2022-08-19T01:16:19.768Z,99.90
2022-08-19T01:18:47.218Z,99.90
2022-08-19T01:21:33.721Z,99.90
2022-08-19T01:24:00.795Z,99.90
2022-08-19T01:26:28.535Z,99.90
2022-08-19T01:29:00.920Z,99.90
2022-08-19T01:31:32.910Z,99.90
2022-08-19T01:34:01.512Z,99.90
2022-08-19T01:36:34.292Z,99.90
2022-08-19T01:39:04.538Z,99.90
2022-08-19T01:41:31.380Z,99.90
2022-08-19T01:44:09.891Z,99.90
2022-08-19T01:46:45.358Z,99.90
2022-08-19T01:49:12.279Z,99.90
2022-08-19T01:51:40.399Z,99.90
2022-08-19T01:54:12.503Z,99.90
2022-08-19T01:56:39.654Z,99.90
2022-08-19T01:59:13.266Z,99.90
2022-08-19T02:01:40.237Z,99.90
2022-08-19T02:04:07.432Z,99.90
2022-08-19T02:06:34.547Z,99.90
2022-08-19T02:09:01.793Z,99.90
2022-08-19T02:11:34.888Z,99.90
2022-08-19T02:14:03.792Z,99.90
2022-08-19T02:16:31.842Z,99.90
2022-08-19T02:19:08.407Z,99.90
2022-08-19T02:21:44.659Z,99.90
2022-08-19T02:24:11.627Z,99.90
2022-08-19T02:26:38.422Z,99.90
2022-08-19T02:29:05.255Z,99.90
2022-08-19T02:31:32.195Z,99.90
2022-08-19T02:33:59.232Z,99.90
2022-08-19T02:36:26.877Z,99.90
2022-08-19T02:38:55.627Z,99.90
2022-08-19T02:41:28.492Z,99.90
2022-08-19T02:44:28.711Z,99.90
2022-08-19T02:46:47.515Z,99.90
2022-08-19T02:49:16.091Z,99.90
2022-08-19T02:51:45.546Z,99.90
2022-08-19T02:54:13.623Z,99.90
2022-08-19T02:56:49.899Z,99.90
2022-08-19T02:59:17.138Z,99.90
2022-08-19T03:01:50.173Z,99.90
2022-08-19T03:04:17.611Z,99.90
2022-08-19T03:06:47.621Z,99.90
2022-08-19T03:09:15.304Z,99.90
2022-08-19T03:11:42.215Z,99.90
2022-08-19T03:14:10.507Z,99.90
2022-08-19T03:16:46.728Z,99.90
2022-08-19T03:19:15.003Z,99.90
2022-08-19T03:21:45.563Z,99.90
2022-08-19T03:24:19.834Z,99.90
2022-08-19T03:26:58.649Z,99.90
2022-08-19T03:29:43.103Z,99.90
2022-08-19T03:32:32.149Z,99.90
2022-08-19T03:35:03.584Z,99.90
2022-08-19T03:37:30.509Z,99.90
2022-08-19T03:39:57.431Z,99.90
2022-08-19T03:42:32.992Z,99.90
2022-08-19T03:45:11.511Z,99.90
2022-08-19T03:47:38.855Z,99.90
2022-08-19T03:50:06.301Z,99.90
2022-08-19T03:52:33.156Z,99.90
2022-08-19T03:55:00.557Z,99.90
2022-08-19T03:57:32.125Z,99.90
2022-08-19T04:00:13.098Z,99.90
2022-08-19T04:02:56.518Z,99.90
2022-08-19T04:05:31.089Z,99.90
2022-08-19T04:08:00.040Z,99.90
2022-08-19T04:10:30.124Z,99.90
2022-08-19T04:12:57.031Z,99.90
2022-08-19T04:15:23.871Z,99.90
2022-08-19T04:17:53.128Z,99.90
2022-08-19T04:20:20.249Z,99.90
2022-08-19T04:22:47.264Z,99.90
2022-08-19T04:25:17.663Z,99.90
2022-08-19T04:27:47.321Z,99.90
2022-08-19T04:30:15.325Z,99.90
2022-08-19T04:32:44.618Z,99.90
2022-08-19T04:35:17.630Z,99.90
2022-08-19T04:37:46.351Z,99.90
2022-08-19T04:40:31.822Z,99.90
2022-08-19T04:42:58.701Z,99.90
2022-08-19T04:45:25.654Z,99.90
2022-08-19T04:47:58.301Z,99.90
2022-08-19T04:50:29.812Z,99.90
2022-08-19T04:52:56.836Z,99.90
2022-08-19T04:55:26.494Z,99.90
2022-08-19T04:57:53.793Z,99.90
2022-08-19T05:00:20.854Z,99.90
2022-08-19T05:02:47.946Z,99.90
2022-08-19T05:05:15.097Z,99.90
2022-08-19T05:07:42.223Z,99.90
2022-08-19T05:10:09.669Z,99.90
2022-08-19T05:12:36.627Z,99.90
2022-08-19T05:15:10.997Z,99.90
2022-08-19T05:17:39.178Z,99.90
2022-08-19T05:20:27.546Z,99.90
2022-08-19T05:22:54.614Z,99.90
2022-08-19T05:25:22.847Z,99.90
2022-08-19T05:27:49.826Z,99.90
2022-08-19T05:30:17.922Z,99.90
2022-08-19T05:32:45.622Z,99.90
2022-08-19T05:35:12.847Z,99.90
2022-08-19T05:37:43.164Z,99.90
2022-08-19T05:40:11.241Z,99.90
2022-08-19T05:42:38.736Z,99.90
2022-08-19T05:45:07.598Z,99.90
2022-08-19T05:47:42.115Z,99.90
2022-08-19T05:50:09.550Z,99.90
2022-08-19T05:52:39.232Z,99.90
2022-08-19T05:55:11.548Z,99.90
2022-08-19T05:57:38.575Z,99.90
2022-08-19T06:00:11.830Z,99.90
2022-08-19T06:02:39.041Z,99.90
2022-08-19T06:05:10.131Z,99.90
2022-08-19T06:07:42.313Z,99.90
2022-08-19T06:10:12.263Z,99.90
2022-08-19T06:12:39.987Z,99.90
2022-08-19T06:15:14.456Z,99.90
2022-08-19T06:17:45.333Z,99.90
2022-08-19T06:20:15.020Z,99.90
2022-08-19T06:22:44.959Z,99.90
2022-08-19T06:25:13.499Z,99.90
2022-08-19T06:27:53.408Z,99.90
2022-08-19T06:30:31.486Z,99.90
2022-08-19T06:32:59.210Z,99.90
2022-08-19T06:35:26.418Z,99.90
2022-08-19T06:37:53.665Z,99.90
2022-08-19T06:40:20.657Z,99.90
2022-08-19T06:42:54.097Z,99.90
2022-08-19T06:45:24.913Z,99.90
2022-08-19T06:47:56.931Z,99.90
2022-08-19T06:50:28.955Z,99.90
2022-08-19T06:52:55.989Z,99.90
2022-08-19T06:55:23.101Z,99.90
2022-08-19T06:57:52.104Z,99.90
2022-08-19T07:00:19.208Z,99.90
2022-08-19T07:02:50.741Z,99.90
2022-08-19T07:05:22.928Z,99.90
2022-08-19T07:07:51.050Z,99.90
2022-08-19T07:10:18.341Z,99.90
2022-08-19T07:12:45.400Z,99.90
2022-08-19T07:15:12.980Z,99.90
2022-08-19T07:17:42.206Z,99.90
2022-08-19T07:20:10.590Z,99.90
2022-08-19T07:22:41.125Z,99.90
2022-08-19T07:25:10.212Z,99.90
2022-08-19T07:27:38.148Z,99.90
2022-08-19T07:30:11.524Z,99.90
2022-08-19T07:32:39.781Z,99.90
2022-08-19T07:35:07.878Z,99.90
2022-08-19T07:37:38.013Z,99.90
2022-08-19T07:40:07.047Z,99.90
2022-08-19T07:42:34.094Z,99.90
2022-08-19T07:45:03.537Z,99.90
2022-08-19T07:47:48.273Z,99.90
2022-08-19T07:50:21.370Z,99.90
2022-08-19T07:52:56.244Z,99.90
2022-08-19T07:55:41.578Z,99.90
2022-08-19T07:58:11.497Z,99.90
2022-08-19T08:00:38.870Z,99.90
2022-08-19T08:03:06.018Z,99.90
2022-08-19T08:05:51.228Z,99.90
2022-08-19T08:08:36.650Z,99.90
2022-08-19T08:11:07.642Z,99.90
2022-08-19T08:13:39.071Z,99.90
2022-08-19T08:16:10.296Z,99.90
2022-08-19T08:18:43.473Z,99.90
2022-08-19T08:21:18.001Z,99.90
2022-08-19T08:23:44.892Z,99.90
2022-08-19T08:26:11.977Z,99.90
2022-08-19T08:28:39.792Z,99.90
2022-08-19T08:31:09.638Z,99.90
2022-08-19T08:33:36.889Z,99.90
2022-08-19T08:36:06.688Z,99.90
2022-08-19T08:38:39.050Z,99.90
2022-08-19T08:41:32.436Z,99.90
2022-08-19T08:43:59.632Z,99.90
2022-08-19T08:46:52.904Z,99.90
2022-08-19T08:49:28.748Z,99.90
2022-08-19T08:52:14.682Z,99.90
2022-08-19T08:54:48.811Z,99.90
2022-08-19T08:57:40.704Z,99.90
2022-08-19T09:00:18.511Z,99.90
2022-08-19T09:02:50.499Z,99.90
2022-08-19T09:05:22.226Z,99.90
2022-08-19T09:08:05.893Z,99.90
2022-08-19T09:10:55.250Z,99.90
2022-08-19T09:14:05.278Z,99.90
2022-08-19T09:16:32.299Z,99.90
2022-08-19T09:19:04.076Z,99.90
2022-08-19T09:21:37.730Z,99.90
2022-08-19T09:24:07.660Z,99.90
2022-08-19T09:26:47.588Z,99.90
2022-08-19T09:29:19.371Z,99.90
2022-08-19T09:31:51.273Z,99.90
2022-08-19T09:34:22.109Z,99.90
2022-08-19T09:36:54.935Z,99.90
2022-08-19T09:39:22.411Z,99.90
2022-08-19T09:41:50.990Z,99.90
2022-08-19T09:44:18.866Z,99.90
2022-08-19T09:46:48.189Z,99.90
2022-08-19T09:49:18.340Z,99.90
2022-08-19T09:51:49.068Z,99.90
2022-08-19T09:54:23.624Z,99.90
2022-08-19T09:56:52.281Z,99.90
2022-08-19T09:59:19.385Z,99.90
2022-08-19T10:01:46.378Z,99.90
2022-08-19T10:04:20.220Z,99.90
2022-08-19T10:06:51.787Z,99.90
2022-08-19T10:09:33.742Z,99.90
2022-08-19T10:12:11.273Z,99.90
2022-08-19T10:14:39.276Z,99.70
2022-08-19T10:17:19.219Z,99.20
2022-08-19T10:19:52.695Z,99.50
2022-08-19T10:22:25.771Z,98.80
2022-08-19T10:24:53.541Z,97.80
2022-08-19T10:27:20.479Z,97.20
2022-08-19T10:29:48.519Z,96.70
2022-08-19T10:32:16.237Z,97.10
2022-08-19T10:34:48.857Z,96.40
2022-08-19T10:37:23.459Z,96.40
2022-08-19T10:39:51.795Z,95.00
2022-08-19T10:42:19.727Z,94.80
2022-08-19T10:44:47.802Z,94.30
2022-08-19T10:47:18.006Z,93.50
2022-08-19T10:50:12.356Z,93.00
2022-08-19T10:52:50.267Z,92.80
2022-08-19T10:55:39.055Z,92.70
2022-08-19T10:58:14.975Z,92.20
2022-08-19T11:00:44.244Z,91.70
2022-08-19T11:03:11.391Z,91.60
2022-08-19T11:05:40.303Z,91.90
2022-08-19T11:08:22.334Z,91.90
2022-08-19T11:10:51.486Z,90.70
2022-08-19T11:13:18.328Z,90.90
2022-08-19T11:15:48.702Z,91.40
2022-08-19T11:18:15.765Z,91.30
2022-08-19T11:20:42.617Z,90.40
2022-08-19T11:23:10.351Z,90.40
2022-08-19T11:25:40.037Z,89.30
2022-08-19T11:28:06.968Z,89.20
2022-08-19T11:30:35.035Z,89.60
2022-08-19T11:33:02.043Z,86.80
2022-08-19T11:35:29.135Z,86.60
2022-08-19T11:37:57.124Z,85.10
2022-08-19T11:40:24.020Z,84.80
2022-08-19T11:42:57.195Z,85.40
2022-08-19T11:45:25.916Z,83.50
2022-08-19T11:47:53.040Z,82.70
2022-08-19T11:50:20.533Z,84.10
2022-08-19T11:52:48.235Z,81.20
2022-08-19T11:55:15.610Z,81.10
2022-08-19T11:57:44.456Z,81.80
2022-08-19T12:00:13.665Z,81.60
2022-08-19T12:02:41.008Z,79.70
2022-08-19T12:05:12.568Z,78.70
2022-08-19T12:07:41.838Z,77.50
2022-08-19T12:10:09.403Z,77.30
2022-08-19T12:12:43.623Z,77.90
2022-08-19T12:15:11.990Z,76.00
2022-08-19T12:17:39.377Z,76.60
2022-08-19T12:20:07.908Z,75.20
2022-08-19T12:22:35.973Z,75.40
2022-08-19T12:25:03.100Z,76.00
2022-08-19T12:27:40.145Z,76.00
2022-08-19T12:30:11.635Z,75.20
2022-08-19T12:32:39.955Z,75.70
2022-08-19T12:35:10.423Z,75.70
2022-08-19T12:37:37.505Z,74.50
2022-08-19T12:40:05.128Z,73.30
2022-08-19T12:42:32.122Z,73.00
2022-08-19T12:45:11.616Z,72.60
2022-08-19T12:47:39.569Z,73.00
2022-08-19T12:50:11.401Z,73.10
2022-08-19T12:52:46.111Z,73.10
2022-08-19T12:55:13.174Z,71.90
2022-08-19T12:57:40.919Z,72.00
2022-08-19T13:00:17.844Z,72.90
2022-08-19T13:02:47.105Z,72.20
2022-08-19T13:05:24.922Z,72.70
2022-08-19T13:07:55.974Z,72.50
2022-08-19T13:10:23.811Z,72.40
2022-08-19T13:12:52.395Z,71.90
2022-08-19T13:15:23.656Z,72.80
2022-08-19T13:17:53.800Z,73.10
2022-08-19T13:20:21.834Z,72.50
2022-08-19T13:22:49.792Z,72.80
2022-08-19T13:25:19.513Z,73.20
2022-08-19T13:27:47.346Z,73.00
2022-08-19T13:30:35.070Z,73.30
2022-08-19T13:33:16.981Z,73.40
2022-08-19T13:35:47.194Z,72.60
2022-08-19T13:38:17.522Z,73.20
2022-08-19T13:40:45.092Z,74.50
2022-08-19T13:43:17.841Z,74.50
2022-08-19T13:45:56.395Z,74.00
2022-08-19T13:48:27.341Z,73.90
2022-08-19T13:51:01.310Z,74.00
2022-08-19T13:53:28.329Z,73.10
2022-08-19T13:55:55.232Z,72.80
2022-08-19T13:58:23.271Z,71.50
2022-08-19T14:00:50.422Z,71.60
2022-08-19T14:03:17.359Z,72.10
2022-08-19T14:05:53.118Z,72.50
2022-08-19T14:08:20.033Z,71.30
2022-08-19T14:10:47.111Z,71.20
2022-08-19T14:13:16.771Z,71.10
2022-08-19T14:15:43.782Z,71.60
2022-08-19T14:18:11.342Z,71.20
2022-08-19T14:20:38.376Z,71.30
2022-08-19T14:23:06.745Z,70.60
2022-08-19T14:25:35.091Z,70.00
2022-08-19T14:28:02.335Z,70.30
2022-08-19T14:30:32.861Z,69.90
2022-08-19T14:33:01.919Z,70.10
2022-08-19T14:35:30.497Z,70.90
2022-08-19T14:37:58.868Z,71.20
2022-08-19T14:40:28.433Z,72.00
2022-08-19T14:43:00.227Z,70.90
2022-08-19T14:45:28.982Z,70.90
2022-08-19T14:47:56.115Z,71.00
2022-08-19T14:50:23.766Z,71.50
2022-08-19T14:52:51.838Z,70.40
2022-08-19T14:55:19.129Z,70.90
2022-08-19T14:57:46.476Z,71.00
2022-08-19T15:00:14.399Z,70.40
2022-08-19T15:02:45.108Z,71.40
2022-08-19T15:05:12.178Z,70.40
2022-08-19T15:07:39.328Z,71.10
2022-08-19T15:10:09.246Z,71.70
2022-08-19T15:12:37.201Z,71.60
2022-08-19T15:15:04.353Z,71.90
2022-08-19T15:17:43.502Z,72.00
2022-08-19T15:20:18.048Z,72.50
2022-08-19T15:22:45.123Z,71.90
2022-08-19T15:25:14.573Z,72.60
2022-08-19T15:27:42.129Z,72.40
2022-08-19T15:30:10.154Z,72.40
2022-08-19T15:32:38.160Z,72.20
2022-08-19T15:35:07.083Z,72.40
2022-08-19T15:37:36.946Z,72.10
2022-08-19T15:40:05.870Z,72.20
2022-08-19T15:42:33.156Z,73.40
2022-08-19T15:45:01.063Z,73.60
2022-08-19T15:47:34.412Z,74.70
2022-08-19T15:50:10.489Z,75.60
2022-08-19T15:52:49.267Z,76.40
2022-08-19T15:55:33.064Z,76.60
2022-08-19T15:58:29.890Z,77.90
2022-08-19T16:01:26.932Z,78.40
2022-08-19T16:04:15.873Z,79.70
2022-08-19T16:06:55.709Z,79.80
2022-08-19T16:09:27.723Z,80.40
2022-08-19T16:12:06.142Z,80.60
2022-08-19T16:14:35.379Z,81.30
2022-08-19T16:17:02.975Z,81.90
2022-08-19T16:19:30.088Z,81.70
2022-08-19T16:21:57.406Z,81.90
2022-08-19T16:24:26.898Z,82.00
2022-08-19T16:26:54.715Z,82.20
2022-08-19T16:29:33.986Z,82.90
2022-08-19T16:32:06.973Z,82.80
2022-08-19T16:34:34.645Z,83.20
2022-08-19T16:37:01.919Z,83.10
2022-08-19T16:39:28.931Z,83.10
2022-08-19T16:41:55.786Z,83.30
2022-08-19T16:44:22.766Z,83.70
2022-08-19T16:46:57.378Z,84.30
2022-08-19T16:49:53.915Z,84.10
2022-08-19T16:52:16.091Z,84.50
2022-08-19T16:54:43.754Z,85.10
2022-08-19T16:57:12.360Z,85.40
2022-08-19T16:59:42.613Z,85.70
2022-08-19T17:02:16.566Z,86.00
2022-08-19T17:04:43.376Z,85.90
2022-08-19T17:07:10.864Z,86.70
2022-08-19T17:09:38.021Z,86.90
2022-08-19T17:12:05.526Z,87.50
2022-08-19T17:14:32.410Z,87.60
2022-08-19T17:16:59.269Z,87.80
2022-08-19T17:19:26.212Z,88.10
2022-08-19T17:21:53.139Z,88.60
2022-08-19T17:24:20.174Z,88.90
2022-08-19T17:26:47.077Z,89.30
2022-08-19T17:29:14.698Z,89.60
2022-08-19T17:31:41.796Z,90.00
2022-08-19T17:34:09.214Z,90.40
2022-08-19T17:36:36.276Z,90.90
2022-08-19T17:39:05.128Z,90.70
2022-08-19T17:41:34.203Z,91.00
2022-08-19T17:44:02.470Z,91.10
2022-08-19T17:46:30.166Z,91.50
2022-08-19T17:48:58.404Z,91.60
2022-08-19T17:51:35.678Z,91.70
2022-08-19T17:54:04.450Z,92.10
2022-08-19T17:56:31.272Z,92.50
2022-08-19T17:59:00.403Z,92.60
2022-08-19T18:01:52.411Z,92.70
2022-08-19T18:04:18.033Z,93.00
2022-08-19T18:06:52.594Z,93.30
2022-08-19T18:09:23.968Z,93.50
2022-08-19T18:11:52.986Z,93.90
2022-08-19T18:14:33.032Z,94.10
2022-08-19T18:17:09.775Z,94.30
2022-08-19T18:19:43.002Z,94.60
2022-08-19T18:22:34.019Z,94.90
2022-08-19T18:25:02.891Z,95.10
2022-08-19T18:27:29.811Z,95.30
2022-08-19T18:29:59.412Z,95.50
2022-08-19T18:32:31.741Z,95.60
2022-08-19T18:35:01.669Z,96.40
2022-08-19T18:37:29.247Z,96.20
2022-08-19T18:40:14.636Z,96.40
2022-08-19T18:43:03.811Z,96.50
2022-08-19T18:45:50.189Z,96.90
2022-08-19T18:48:35.611Z,97.00
2022-08-19T18:51:03.197Z,97.80
2022-08-19T18:53:34.046Z,97.60
2022-08-19T18:56:00.973Z,97.90
2022-08-19T18:58:36.578Z,98.00
2022-08-19T19:01:21.661Z,98.20
2022-08-19T19:03:54.593Z,98.50
2022-08-19T19:06:29.062Z,98.80
2022-08-19T19:08:56.973Z,99.10
2022-08-19T19:11:31.565Z,99.30
2022-08-19T19:14:01.927Z,99.60
2022-08-19T19:16:32.654Z,99.80
2022-08-19T19:19:00.577Z,99.90
2022-08-19T19:21:30.837Z,99.90
2022-08-19T19:24:00.467Z,99.90
2022-08-19T19:26:27.602Z,99.90
2022-08-19T19:28:54.881Z,99.90
2022-08-19T19:31:26.625Z,99.90
2022-08-19T19:33:55.727Z,99.90
2022-08-19T19:36:23.589Z,99.90
2022-08-19T19:38:50.498Z,99.90
2022-08-19T19:41:23.395Z,99.90
2022-08-19T19:44:16.344Z,99.90
2022-08-19T19:46:42.718Z,99.90
2022-08-19T19:49:10.537Z,99.90
2022-08-19T19:51:41.181Z,99.90
2022-08-19T19:54:09.511Z,99.90
2022-08-19T19:56:36.377Z,99.90
2022-08-19T19:59:04.090Z,99.90
2022-08-19T20:01:31.146Z,99.90
2022-08-19T20:04:01.501Z,99.90
2022-08-19T20:06:29.184Z,99.90
2022-08-19T20:09:10.527Z,99.90
2022-08-19T20:11:44.654Z,99.90
2022-08-19T20:14:21.478Z,99.90
2022-08-19T20:16:49.988Z,99.90
2022-08-19T20:19:20.648Z,99.90
2022-08-19T20:21:51.343Z,99.90
2022-08-19T20:24:22.541Z,99.90
2022-08-19T20:26:50.362Z,99.90
2022-08-19T20:29:39.431Z,99.90
2022-08-19T20:32:09.914Z,99.90
2022-08-19T20:34:37.279Z,99.90
2022-08-19T20:37:04.738Z,99.90
2022-08-19T20:39:31.943Z,99.90
2022-08-19T20:42:00.139Z,99.90
2022-08-19T20:44:27.096Z,99.90
2022-08-19T20:46:56.763Z,99.90
2022-08-19T20:49:27.063Z,99.90
2022-08-19T20:51:55.271Z,99.90
2022-08-19T20:54:22.184Z,99.90
2022-08-19T20:56:51.123Z,99.90
2022-08-19T20:59:20.008Z,99.90
2022-08-19T21:01:47.428Z,99.90
2022-08-19T21:04:14.469Z,99.90
2022-08-19T21:06:45.359Z,99.90
2022-08-19T21:09:13.768Z,99.90
2022-08-19T21:11:41.140Z,99.90
2022-08-19T21:14:08.240Z,99.90
2022-08-19T21:16:35.336Z,99.90
2022-08-19T21:22:52.857Z,99.90
2022-08-19T21:25:19.803Z,99.90
2022-08-19T21:27:46.683Z,99.90
2022-08-19T21:30:13.874Z,99.90
2022-08-19T21:32:40.872Z,99.90
2022-08-19T21:35:08.062Z,99.90
2022-08-19T21:37:35.597Z,99.90
2022-08-19T21:40:02.616Z,99.90
2022-08-19T21:42:29.661Z,99.90
2022-08-19T21:45:03.245Z,99.90
2022-08-19T21:47:30.371Z,99.90
2022-08-19T21:49:57.274Z,99.90
2022-08-19T21:52:26.791Z,99.90
2022-08-19T21:54:55.159Z,99.90
2022-08-19T21:57:23.544Z,99.90
2022-08-19T21:59:51.866Z,99.90
2022-08-19T22:02:20.851Z,99.90
2022-08-19T22:04:49.238Z,99.90
2022-08-19T22:07:16.228Z,99.90
2022-08-19T22:09:45.651Z,99.90
2022-08-19T22:12:23.417Z,99.90
2022-08-19T22:14:51.898Z,99.90
2022-08-19T22:17:19.809Z,99.90
2022-08-19T22:19:47.149Z,99.90
2022-08-19T22:22:24.194Z,99.90
2022-08-19T22:24:52.983Z,99.90
2022-08-19T22:27:20.682Z,99.90
2022-08-19T22:29:47.656Z,99.90
2022-08-19T22:32:26.692Z,99.90
2022-08-19T22:34:57.108Z,99.90
2022-08-19T22:37:24.045Z,99.90
2022-08-19T22:39:50.935Z,99.90
2022-08-19T22:42:20.200Z,99.90
2022-08-19T22:44:47.140Z,99.90
2022-08-19T22:47:13.971Z,99.90
2022-08-19T22:49:40.936Z,99.90
2022-08-19T22:52:19.849Z,99.90
2022-08-19T22:54:52.003Z,99.90
2022-08-19T22:57:20.608Z,99.90
2022-08-19T22:59:50.271Z,99.90
2022-08-19T23:02:30.096Z,99.90
2022-08-19T23:04:57.395Z,99.90
2022-08-19T23:07:24.231Z,99.90
2022-08-19T23:09:51.097Z,99.90
2022-08-19T23:12:31.154Z,99.90
2022-08-19T23:15:06.178Z,99.90
2022-08-19T23:17:33.995Z,99.90
2022-08-19T23:20:00.860Z,99.90
2022-08-19T23:22:29.443Z,99.90
2022-08-19T23:25:01.143Z,99.90
2022-08-19T23:27:46.833Z,99.90
2022-08-19T23:30:34.184Z,99.90
2022-08-19T23:33:12.670Z,99.90
2022-08-19T23:35:41.068Z,99.90
2022-08-19T23:38:08.511Z,99.90
2022-08-19T23:40:37.215Z,99.90
2022-08-19T23:43:09.695Z,99.90
2022-08-19T23:45:41.102Z,99.90
2022-08-19T23:48:18.701Z,99.90
2022-08-19T23:50:46.438Z,99.90
2022-08-19T23:53:14.805Z,99.90
2022-08-19T23:55:45.318Z,99.90
2022-08-19T23:58:13.801Z,99.90
